Fairview Hill, Kentucky
Current Conditions -  °F | °C
As of 1:51 PM on Thursday 27 Nov 2014 (Local Time) from KHTS Reporting Station
Overcast Overcast  
Wind Chill: 25°   Ceiling: 3000
Heat Index: 33°   Visibility: 10mi
Dew Point: 22°   Wind: 10mph
Humidity: 64%   Direction: 290°WNW
Pressure: 30.23"   Gusts: NA
Location:  38.234°N, 82.9152°W
Report Text: KHTS 271851Z 29009KT 10SM OVC030 01/M06 A3023 RMK AO2 SLP243 T00061056
Loading
Personal Weather Stations






























Interactive Weather Map New forecast layout! Learn more

10-Day Weather Forecast

Advertisements
Track Severe Weather on mobile